sensor_id;sensor_type;location;lat;lon;timestamp;P1;durP1;ratioP1;P2;durP2;ratioP2
63046;SDS011;62025;39.238;9.126;2023-07-09T00:03:18;9.27;;;3.38;;
63046;SDS011;62025;39.238;9.126;2023-07-09T00:05:45;13.45;;;3.90;;
63046;SDS011;62025;39.238;9.126;2023-07-09T00:08:27;7.43;;;3.33;;
63046;SDS011;62025;39.238;9.126;2023-07-09T00:10:55;13.25;;;3.72;;
63046;SDS011;62025;39.238;9.126;2023-07-09T00:13:23;14.68;;;4.03;;
63046;SDS011;62025;39.238;9.126;2023-07-09T00:15:50;15.70;;;3.95;;
63046;SDS011;62025;39.238;9.126;2023-07-09T00:20:44;10.88;;;3.40;;
63046;SDS011;62025;39.238;9.126;2023-07-09T00:23:13;12.57;;;3.90;;
63046;SDS011;62025;39.238;9.126;2023-07-09T00:25:42;10.75;;;3.67;;
63046;SDS011;62025;39.238;9.126;2023-07-09T00:28:18;12.55;;;3.95;;
63046;SDS011;62025;39.238;9.126;2023-07-09T00:30:45;12.57;;;4.35;;
63046;SDS011;62025;39.238;9.126;2023-07-09T00:33:12;10.23;;;3.75;;
63046;SDS011;62025;39.238;9.126;2023-07-09T00:35:41;12.20;;;4.35;;
63046;SDS011;62025;39.238;9.126;2023-07-09T00:38:12;13.02;;;4.15;;
63046;SDS011;62025;39.238;9.126;2023-07-09T00:43:31;14.25;;;4.53;;
63046;SDS011;62025;39.238;9.126;2023-07-09T00:46:09;10.05;;;3.60;;
63046;SDS011;62025;39.238;9.126;2023-07-09T00:48:55;12.32;;;4.13;;
63046;SDS011;62025;39.238;9.126;2023-07-09T00:51:25;18.33;;;4.32;;
63046;SDS011;62025;39.238;9.126;2023-07-09T00:53:55;15.85;;;4.07;;
63046;SDS011;62025;39.238;9.126;2023-07-09T00:56:32;13.77;;;4.13;;
63046;SDS011;62025;39.238;9.126;2023-07-09T00:59:04;13.98;;;4.57;;
63046;SDS011;62025;39.238;9.126;2023-07-09T01:01:39;10.65;;;4.38;;
63046;SDS011;62025;39.238;9.126;2023-07-09T01:04:10;9.65;;;3.58;;
63046;SDS011;62025;39.238;9.126;2023-07-09T01:06:41;15.20;;;4.25;;
63046;SDS011;62025;39.238;9.126;2023-07-09T01:09:14;10.48;;;3.80;;
63046;SDS011;62025;39.238;9.126;2023-07-09T01:11:41;11.63;;;3.97;;
63046;SDS011;62025;39.238;9.126;2023-07-09T01:14:08;16.30;;;4.07;;
63046;SDS011;62025;39.238;9.126;2023-07-09T01:16:37;11.32;;;3.70;;
63046;SDS011;62025;39.238;9.126;2023-07-09T01:19:15;12.00;;;3.88;;
63046;SDS011;62025;39.238;9.126;2023-07-09T01:21:49;10.60;;;3.88;;
63046;SDS011;62025;39.238;9.126;2023-07-09T01:27:35;8.60;;;3.63;;
63046;SDS011;62025;39.238;9.126;2023-07-09T01:30:09;12.70;;;3.92;;
63046;SDS011;62025;39.238;9.126;2023-07-09T01:32:48;10.48;;;4.05;;
63046;SDS011;62025;39.238;9.126;2023-07-09T01:35:17;11.38;;;3.90;;
63046;SDS011;62025;39.238;9.126;2023-07-09T01:37:46;14.50;;;4.00;;
63046;SDS011;62025;39.238;9.126;2023-07-09T01:40:14;9.50;;;3.53;;
63046;SDS011;62025;39.238;9.126;2023-07-09T01:42:44;12.75;;;3.80;;
63046;SDS011;62025;39.238;9.126;2023-07-09T01:45:11;12.35;;;4.10;;
63046;SDS011;62025;39.238;9.126;2023-07-09T01:47:38;11.35;;;3.60;;
63046;SDS011;62025;39.238;9.126;2023-07-09T01:50:05;11.98;;;3.65;;
63046;SDS011;62025;39.238;9.126;2023-07-09T01:52:33;9.65;;;3.08;;
63046;SDS011;62025;39.238;9.126;2023-07-09T01:55:00;10.40;;;3.20;;
63046;SDS011;62025;39.238;9.126;2023-07-09T01:57:30;10.23;;;4.10;;
63046;SDS011;62025;39.238;9.126;2023-07-09T01:59:59;8.38;;;3.55;;
63046;SDS011;62025;39.238;9.126;2023-07-09T02:02:39;14.25;;;3.30;;
63046;SDS011;62025;39.238;9.126;2023-07-09T02:05:10;9.50;;;3.67;;
63046;SDS011;62025;39.238;9.126;2023-07-09T02:07:38;10.30;;;3.60;;
63046;SDS011;62025;39.238;9.126;2023-07-09T02:10:04;16.33;;;3.70;;
63046;SDS011;62025;39.238;9.126;2023-07-09T02:12:31;12.10;;;3.70;;
63046;SDS011;62025;39.238;9.126;2023-07-09T02:14:58;9.43;;;3.47;;
63046;SDS011;62025;39.238;9.126;2023-07-09T02:17:24;10.55;;;3.45;;
63046;SDS011;62025;39.238;9.126;2023-07-09T02:19:50;14.15;;;3.53;;
63046;SDS011;62025;39.238;9.126;2023-07-09T02:22:17;10.77;;;3.72;;
63046;SDS011;62025;39.238;9.126;2023-07-09T02:24:44;10.85;;;3.60;;
63046;SDS011;62025;39.238;9.126;2023-07-09T02:27:13;15.90;;;3.80;;
63046;SDS011;62025;39.238;9.126;2023-07-09T02:29:43;11.07;;;3.63;;
63046;SDS011;62025;39.238;9.126;2023-07-09T02:32:09;8.93;;;3.45;;
63046;SDS011;62025;39.238;9.126;2023-07-09T02:34:43;11.77;;;3.67;;
63046;SDS011;62025;39.238;9.126;2023-07-09T02:37:14;9.48;;;3.53;;
63046;SDS011;62025;39.238;9.126;2023-07-09T02:39:44;11.60;;;3.80;;
63046;SDS011;62025;39.238;9.126;2023-07-09T02:42:11;12.60;;;3.65;;
63046;SDS011;62025;39.238;9.126;2023-07-09T02:44:39;12.63;;;3.60;;
63046;SDS011;62025;39.238;9.126;2023-07-09T02:47:07;8.95;;;4.00;;
63046;SDS011;62025;39.238;9.126;2023-07-09T02:49:33;13.13;;;3.60;;
63046;SDS011;62025;39.238;9.126;2023-07-09T02:52:00;10.55;;;3.95;;
63046;SDS011;62025;39.238;9.126;2023-07-09T02:54:26;13.18;;;3.60;;
63046;SDS011;62025;39.238;9.126;2023-07-09T02:56:52;13.60;;;3.30;;
63046;SDS011;62025;39.238;9.126;2023-07-09T02:59:18;13.40;;;4.10;;
63046;SDS011;62025;39.238;9.126;2023-07-09T03:01:45;12.18;;;3.53;;
63046;SDS011;62025;39.238;9.126;2023-07-09T03:04:13;11.32;;;3.45;;
63046;SDS011;62025;39.238;9.126;2023-07-09T03:06:40;12.40;;;3.40;;
63046;SDS011;62025;39.238;9.126;2023-07-09T03:09:06;17.75;;;4.00;;
63046;SDS011;62025;39.238;9.126;2023-07-09T03:11:34;16.13;;;4.15;;
63046;SDS011;62025;39.238;9.126;2023-07-09T03:14:01;12.75;;;3.72;;
63046;SDS011;62025;39.238;9.126;2023-07-09T03:16:28;10.75;;;3.42;;
63046;SDS011;62025;39.238;9.126;2023-07-09T03:18:57;9.18;;;3.60;;
63046;SDS011;62025;39.238;9.126;2023-07-09T03:21:24;10.88;;;3.50;;
63046;SDS011;62025;39.238;9.126;2023-07-09T03:26:19;10.05;;;3.83;;
63046;SDS011;62025;39.238;9.126;2023-07-09T03:28:45;14.15;;;3.83;;
63046;SDS011;62025;39.238;9.126;2023-07-09T03:31:11;12.10;;;3.80;;
63046;SDS011;62025;39.238;9.126;2023-07-09T03:33:38;13.63;;;3.92;;
63046;SDS011;62025;39.238;9.126;2023-07-09T03:36:04;12.05;;;3.95;;
63046;SDS011;62025;39.238;9.126;2023-07-09T03:38:31;10.07;;;3.58;;
63046;SDS011;62025;39.238;9.126;2023-07-09T03:40:57;14.32;;;3.95;;
63046;SDS011;62025;39.238;9.126;2023-07-09T03:43:23;12.18;;;3.60;;
63046;SDS011;62025;39.238;9.126;2023-07-09T03:45:50;13.15;;;3.55;;
63046;SDS011;62025;39.238;9.126;2023-07-09T03:48:17;11.68;;;3.65;;
63046;SDS011;62025;39.238;9.126;2023-07-09T03:50:45;9.00;;;3.40;;
63046;SDS011;62025;39.238;9.126;2023-07-09T03:53:13;10.27;;;3.80;;
63046;SDS011;62025;39.238;9.126;2023-07-09T03:55:40;11.18;;;3.72;;
63046;SDS011;62025;39.238;9.126;2023-07-09T03:58:06;9.90;;;3.40;;
63046;SDS011;62025;39.238;9.126;2023-07-09T04:00:33;11.82;;;3.58;;
63046;SDS011;62025;39.238;9.126;2023-07-09T04:03:00;12.38;;;3.92;;
63046;SDS011;62025;39.238;9.126;2023-07-09T04:05:26;13.45;;;4.28;;
63046;SDS011;62025;39.238;9.126;2023-07-09T04:07:53;7.90;;;3.50;;
63046;SDS011;62025;39.238;9.126;2023-07-09T04:10:19;13.18;;;3.97;;
63046;SDS011;62025;39.238;9.126;2023-07-09T04:12:46;12.38;;;4.10;;
63046;SDS011;62025;39.238;9.126;2023-07-09T04:15:12;10.93;;;3.95;;
63046;SDS011;62025;39.238;9.126;2023-07-09T04:17:39;10.43;;;3.90;;
63046;SDS011;62025;39.238;9.126;2023-07-09T04:20:09;9.82;;;3.80;;
63046;SDS011;62025;39.238;9.126;2023-07-09T04:22:36;13.15;;;4.45;;
63046;SDS011;62025;39.238;9.126;2023-07-09T04:25:03;11.10;;;4.28;;
63046;SDS011;62025;39.238;9.126;2023-07-09T04:27:35;13.00;;;3.90;;
63046;SDS011;62025;39.238;9.126;2023-07-09T04:30:02;13.13;;;4.38;;
63046;SDS011;62025;39.238;9.126;2023-07-09T04:32:30;15.50;;;3.95;;
63046;SDS011;62025;39.238;9.126;2023-07-09T04:34:56;10.07;;;3.97;;
63046;SDS011;62025;39.238;9.126;2023-07-09T04:37:23;13.55;;;3.97;;
63046;SDS011;62025;39.238;9.126;2023-07-09T04:39:49;11.95;;;3.75;;
63046;SDS011;62025;39.238;9.126;2023-07-09T04:42:15;14.48;;;4.55;;
63046;SDS011;62025;39.238;9.126;2023-07-09T04:44:43;13.02;;;4.28;;
63046;SDS011;62025;39.238;9.126;2023-07-09T04:47:10;10.35;;;4.30;;
63046;SDS011;62025;39.238;9.126;2023-07-09T04:49:40;10.95;;;3.78;;
63046;SDS011;62025;39.238;9.126;2023-07-09T04:52:07;9.95;;;3.78;;
63046;SDS011;62025;39.238;9.126;2023-07-09T04:54:37;12.05;;;4.20;;
63046;SDS011;62025;39.238;9.126;2023-07-09T04:57:08;15.13;;;4.80;;
63046;SDS011;62025;39.238;9.126;2023-07-09T04:59:35;15.07;;;4.38;;
63046;SDS011;62025;39.238;9.126;2023-07-09T05:02:02;15.18;;;4.57;;
63046;SDS011;62025;39.238;9.126;2023-07-09T05:04:29;16.07;;;4.23;;
63046;SDS011;62025;39.238;9.126;2023-07-09T05:06:56;12.75;;;4.22;;
63046;SDS011;62025;39.238;9.126;2023-07-09T05:09:23;14.55;;;4.30;;
63046;SDS011;62025;39.238;9.126;2023-07-09T05:11:49;12.68;;;4.80;;
63046;SDS011;62025;39.238;9.126;2023-07-09T05:14:16;14.75;;;4.50;;
63046;SDS011;62025;39.238;9.126;2023-07-09T05:16:43;11.02;;;4.50;;
63046;SDS011;62025;39.238;9.126;2023-07-09T05:19:10;15.43;;;4.20;;
63046;SDS011;62025;39.238;9.126;2023-07-09T05:21:37;15.98;;;4.95;;
63046;SDS011;62025;39.238;9.126;2023-07-09T05:24:03;12.75;;;4.15;;
63046;SDS011;62025;39.238;9.126;2023-07-09T05:26:30;10.85;;;4.15;;
63046;SDS011;62025;39.238;9.126;2023-07-09T05:28:56;15.27;;;4.80;;
63046;SDS011;62025;39.238;9.126;2023-07-09T05:31:22;18.42;;;4.50;;
63046;SDS011;62025;39.238;9.126;2023-07-09T05:33:48;17.70;;;4.22;;
63046;SDS011;62025;39.238;9.126;2023-07-09T05:36:14;17.40;;;5.25;;
63046;SDS011;62025;39.238;9.126;2023-07-09T05:38:44;15.00;;;4.32;;
63046;SDS011;62025;39.238;9.126;2023-07-09T05:41:12;16.88;;;4.35;;
63046;SDS011;62025;39.238;9.126;2023-07-09T05:43:39;13.95;;;4.15;;
63046;SDS011;62025;39.238;9.126;2023-07-09T05:46:05;11.90;;;4.60;;
63046;SDS011;62025;39.238;9.126;2023-07-09T05:48:31;18.13;;;4.82;;
63046;SDS011;62025;39.238;9.126;2023-07-09T05:50:58;12.68;;;4.32;;
63046;SDS011;62025;39.238;9.126;2023-07-09T05:53:24;10.50;;;4.10;;
63046;SDS011;62025;39.238;9.126;2023-07-09T05:55:54;17.17;;;4.78;;
63046;SDS011;62025;39.238;9.126;2023-07-09T05:58:21;18.42;;;5.03;;
63046;SDS011;62025;39.238;9.126;2023-07-09T06:00:51;17.63;;;4.72;;
63046;SDS011;62025;39.238;9.126;2023-07-09T06:03:19;18.98;;;4.68;;
63046;SDS011;62025;39.238;9.126;2023-07-09T06:05:47;18.92;;;4.82;;
63046;SDS011;62025;39.238;9.126;2023-07-09T06:08:17;15.02;;;4.68;;
63046;SDS011;62025;39.238;9.126;2023-07-09T06:10:56;15.65;;;4.45;;
63046;SDS011;62025;39.238;9.126;2023-07-09T06:13:24;13.15;;;4.45;;
63046;SDS011;62025;39.238;9.126;2023-07-09T06:15:52;11.73;;;3.92;;
63046;SDS011;62025;39.238;9.126;2023-07-09T06:20:48;12.13;;;4.70;;
63046;SDS011;62025;39.238;9.126;2023-07-09T06:23:19;13.50;;;4.70;;
63046;SDS011;62025;39.238;9.126;2023-07-09T06:25:46;14.20;;;4.60;;
63046;SDS011;62025;39.238;9.126;2023-07-09T06:28:14;12.77;;;4.65;;
63046;SDS011;62025;39.238;9.126;2023-07-09T06:30:40;15.32;;;5.00;;
63046;SDS011;62025;39.238;9.126;2023-07-09T06:33:06;19.77;;;4.82;;
63046;SDS011;62025;39.238;9.126;2023-07-09T06:35:32;13.15;;;4.85;;
63046;SDS011;62025;39.238;9.126;2023-07-09T06:37:58;20.45;;;4.90;;
63046;SDS011;62025;39.238;9.126;2023-07-09T06:40:24;19.23;;;4.63;;
63046;SDS011;62025;39.238;9.126;2023-07-09T06:42:50;21.30;;;5.07;;
63046;SDS011;62025;39.238;9.126;2023-07-09T06:45:24;14.00;;;4.65;;
63046;SDS011;62025;39.238;9.126;2023-07-09T06:47:50;19.55;;;4.80;;
63046;SDS011;62025;39.238;9.126;2023-07-09T06:50:16;12.73;;;4.90;;
63046;SDS011;62025;39.238;9.126;2023-07-09T06:52:42;17.77;;;4.95;;
63046;SDS011;62025;39.238;9.126;2023-07-09T06:55:08;16.05;;;5.20;;
63046;SDS011;62025;39.238;9.126;2023-07-09T06:57:34;23.25;;;5.40;;
63046;SDS011;62025;39.238;9.126;2023-07-09T07:00:01;16.27;;;5.07;;
63046;SDS011;62025;39.238;9.126;2023-07-09T07:02:27;17.60;;;5.03;;
63046;SDS011;62025;39.238;9.126;2023-07-09T07:04:53;19.77;;;4.65;;
63046;SDS011;62025;39.238;9.126;2023-07-09T07:07:20;24.95;;;5.97;;
63046;SDS011;62025;39.238;9.126;2023-07-09T07:09:47;21.95;;;4.80;;
63046;SDS011;62025;39.238;9.126;2023-07-09T07:12:41;16.25;;;5.00;;
63046;SDS011;62025;39.238;9.126;2023-07-09T07:15:11;22.80;;;5.07;;
63046;SDS011;62025;39.238;9.126;2023-07-09T07:17:39;21.80;;;4.85;;
63046;SDS011;62025;39.238;9.126;2023-07-09T07:20:06;19.00;;;4.57;;
63046;SDS011;62025;39.238;9.126;2023-07-09T07:22:34;24.38;;;5.22;;
63046;SDS011;62025;39.238;9.126;2023-07-09T07:25:00;16.20;;;5.25;;
63046;SDS011;62025;39.238;9.126;2023-07-09T07:27:26;23.75;;;4.70;;
63046;SDS011;62025;39.238;9.126;2023-07-09T07:29:52;19.63;;;4.90;;
63046;SDS011;62025;39.238;9.126;2023-07-09T07:32:19;18.73;;;5.60;;
63046;SDS011;62025;39.238;9.126;2023-07-09T07:34:48;21.08;;;5.20;;
63046;SDS011;62025;39.238;9.126;2023-07-09T07:37:14;27.83;;;4.93;;
63046;SDS011;62025;39.238;9.126;2023-07-09T07:39:46;23.13;;;5.15;;
63046;SDS011;62025;39.238;9.126;2023-07-09T07:42:13;23.63;;;4.93;;
63046;SDS011;62025;39.238;9.126;2023-07-09T07:44:39;17.83;;;4.90;;
63046;SDS011;62025;39.238;9.126;2023-07-09T07:47:05;16.70;;;4.70;;
63046;SDS011;62025;39.238;9.126;2023-07-09T07:49:32;19.70;;;5.18;;
63046;SDS011;62025;39.238;9.126;2023-07-09T07:51:58;18.20;;;5.13;;
63046;SDS011;62025;39.238;9.126;2023-07-09T07:54:24;16.92;;;4.95;;
63046;SDS011;62025;39.238;9.126;2023-07-09T07:56:50;16.73;;;5.22;;
63046;SDS011;62025;39.238;9.126;2023-07-09T07:59:17;13.13;;;4.82;;
63046;SDS011;62025;39.238;9.126;2023-07-09T08:01:43;17.52;;;5.28;;
63046;SDS011;62025;39.238;9.126;2023-07-09T08:04:09;11.20;;;4.40;;
63046;SDS011;62025;39.238;9.126;2023-07-09T08:06:35;16.08;;;4.13;;
63046;SDS011;62025;39.238;9.126;2023-07-09T08:09:01;23.35;;;4.80;;
63046;SDS011;62025;39.238;9.126;2023-07-09T08:11:27;15.30;;;4.00;;
63046;SDS011;62025;39.238;9.126;2023-07-09T08:13:54;10.20;;;4.05;;
63046;SDS011;62025;39.238;9.126;2023-07-09T08:16:20;19.70;;;3.78;;
63046;SDS011;62025;39.238;9.126;2023-07-09T08:18:46;13.48;;;4.10;;
63046;SDS011;62025;39.238;9.126;2023-07-09T08:21:13;12.52;;;4.40;;
63046;SDS011;62025;39.238;9.126;2023-07-09T08:23:39;15.15;;;3.90;;
63046;SDS011;62025;39.238;9.126;2023-07-09T08:26:05;16.13;;;4.10;;
63046;SDS011;62025;39.238;9.126;2023-07-09T08:28:31;15.25;;;4.25;;
63046;SDS011;62025;39.238;9.126;2023-07-09T08:31:00;13.40;;;3.80;;
63046;SDS011;62025;39.238;9.126;2023-07-09T08:33:26;11.32;;;3.83;;
63046;SDS011;62025;39.238;9.126;2023-07-09T08:35:53;14.20;;;4.07;;
63046;SDS011;62025;39.238;9.126;2023-07-09T08:38:20;25.13;;;4.28;;
63046;SDS011;62025;39.238;9.126;2023-07-09T08:41:08;13.23;;;3.72;;
63046;SDS011;62025;39.238;9.126;2023-07-09T08:44:03;14.57;;;4.10;;
63046;SDS011;62025;39.238;9.126;2023-07-09T08:47:00;20.13;;;4.30;;
63046;SDS011;62025;39.238;9.126;2023-07-09T08:49:38;15.97;;;4.10;;
63046;SDS011;62025;39.238;9.126;2023-07-09T08:52:35;12.70;;;4.45;;
63046;SDS011;62025;39.238;9.126;2023-07-09T08:55:06;16.45;;;4.78;;
63046;SDS011;62025;39.238;9.126;2023-07-09T08:57:41;15.95;;;3.88;;
63046;SDS011;62025;39.238;9.126;2023-07-09T09:03:13;18.20;;;4.75;;
63046;SDS011;62025;39.238;9.126;2023-07-09T09:05:47;12.52;;;4.25;;
63046;SDS011;62025;39.238;9.126;2023-07-09T09:14:01;13.40;;;4.60;;
63046;SDS011;62025;39.238;9.126;2023-07-09T09:16:35;12.68;;;4.03;;
63046;SDS011;62025;39.238;9.126;2023-07-09T09:19:05;17.80;;;4.65;;
63046;SDS011;62025;39.238;9.126;2023-07-09T09:22:10;16.55;;;4.57;;
63046;SDS011;62025;39.238;9.126;2023-07-09T09:24:53;12.07;;;4.00;;
63046;SDS011;62025;39.238;9.126;2023-07-09T09:27:39;12.50;;;4.30;;
63046;SDS011;62025;39.238;9.126;2023-07-09T09:30:17;12.57;;;4.30;;
63046;SDS011;62025;39.238;9.126;2023-07-09T09:35:29;11.23;;;4.03;;
63046;SDS011;62025;39.238;9.126;2023-07-09T09:38:01;16.02;;;4.60;;
63046;SDS011;62025;39.238;9.126;2023-07-09T09:40:28;10.95;;;4.28;;
63046;SDS011;62025;39.238;9.126;2023-07-09T09:43:01;15.68;;;4.32;;
63046;SDS011;62025;39.238;9.126;2023-07-09T09:47:59;12.48;;;3.78;;
63046;SDS011;62025;39.238;9.126;2023-07-09T09:50:31;19.90;;;4.32;;
63046;SDS011;62025;39.238;9.126;2023-07-09T09:52:58;11.23;;;4.03;;
63046;SDS011;62025;39.238;9.126;2023-07-09T09:55:31;9.73;;;3.78;;
63046;SDS011;62025;39.238;9.126;2023-07-09T09:57:58;13.73;;;4.20;;
63046;SDS011;62025;39.238;9.126;2023-07-09T10:00:25;15.15;;;3.85;;
63046;SDS011;62025;39.238;9.126;2023-07-09T10:02:58;10.27;;;3.65;;
63046;SDS011;62025;39.238;9.126;2023-07-09T10:05:36;13.20;;;4.25;;
63046;SDS011;62025;39.238;9.126;2023-07-09T10:11:11;10.32;;;3.95;;
63046;SDS011;62025;39.238;9.126;2023-07-09T10:13:44;13.98;;;4.55;;
63046;SDS011;62025;39.238;9.126;2023-07-09T10:27:15;18.38;;;4.28;;
63046;SDS011;62025;39.238;9.126;2023-07-09T10:33:11;15.60;;;4.15;;
63046;SDS011;62025;39.238;9.126;2023-07-09T10:36:16;13.88;;;4.30;;
63046;SDS011;62025;39.238;9.126;2023-07-09T10:39:14;13.88;;;4.32;;
63046;SDS011;62025;39.238;9.126;2023-07-09T10:41:45;13.18;;;3.88;;
63046;SDS011;62025;39.238;9.126;2023-07-09T10:44:19;11.25;;;4.55;;
63046;SDS011;62025;39.238;9.126;2023-07-09T10:47:04;14.55;;;4.07;;
63046;SDS011;62025;39.238;9.126;2023-07-09T10:49:38;11.25;;;3.90;;
63046;SDS011;62025;39.238;9.126;2023-07-09T10:52:11;9.85;;;3.60;;
63046;SDS011;62025;39.238;9.126;2023-07-09T10:57:44;19.17;;;4.25;;
63046;SDS011;62025;39.238;9.126;2023-07-09T11:00:25;14.38;;;3.92;;
63046;SDS011;62025;39.238;9.126;2023-07-09T11:03:18;11.98;;;4.07;;
63046;SDS011;62025;39.238;9.126;2023-07-09T11:06:13;18.95;;;4.35;;
63046;SDS011;62025;39.238;9.126;2023-07-09T11:09:11;13.70;;;4.15;;
63046;SDS011;62025;39.238;9.126;2023-07-09T11:12:01;13.32;;;3.92;;
63046;SDS011;62025;39.238;9.126;2023-07-09T11:14:57;17.33;;;4.30;;
63046;SDS011;62025;39.238;9.126;2023-07-09T11:17:29;12.00;;;4.47;;
63046;SDS011;62025;39.238;9.126;2023-07-09T11:19:56;15.93;;;4.25;;
63046;SDS011;62025;39.238;9.126;2023-07-09T11:25:10;13.63;;;4.00;;
63046;SDS011;62025;39.238;9.126;2023-07-09T11:27:52;14.07;;;4.30;;
63046;SDS011;62025;39.238;9.126;2023-07-09T11:30:27;13.55;;;3.63;;
63046;SDS011;62025;39.238;9.126;2023-07-09T11:35:30;10.00;;;3.97;;
63046;SDS011;62025;39.238;9.126;2023-07-09T11:38:24;13.88;;;4.47;;
63046;SDS011;62025;39.238;9.126;2023-07-09T11:40:54;16.52;;;4.30;;
63046;SDS011;62025;39.238;9.126;2023-07-09T11:43:28;13.07;;;4.28;;
63046;SDS011;62025;39.238;9.126;2023-07-09T11:46:18;11.60;;;4.35;;
63046;SDS011;62025;39.238;9.126;2023-07-09T11:48:49;11.93;;;3.78;;
63046;SDS011;62025;39.238;9.126;2023-07-09T11:51:20;9.77;;;4.10;;
63046;SDS011;62025;39.238;9.126;2023-07-09T11:54:00;13.50;;;3.97;;
63046;SDS011;62025;39.238;9.126;2023-07-09T11:56:28;15.05;;;5.15;;
63046;SDS011;62025;39.238;9.126;2023-07-09T11:59:00;14.75;;;4.30;;
63046;SDS011;62025;39.238;9.126;2023-07-09T12:01:28;14.13;;;4.43;;
63046;SDS011;62025;39.238;9.126;2023-07-09T12:04:18;13.45;;;4.88;;
63046;SDS011;62025;39.238;9.126;2023-07-09T12:06:48;15.30;;;4.20;;
63046;SDS011;62025;39.238;9.126;2023-07-09T12:09:19;14.45;;;4.30;;
63046;SDS011;62025;39.238;9.126;2023-07-09T12:14:15;13.88;;;4.40;;
63046;SDS011;62025;39.238;9.126;2023-07-09T12:16:47;17.20;;;4.88;;
63046;SDS011;62025;39.238;9.126;2023-07-09T12:19:17;13.20;;;4.35;;
63046;SDS011;62025;39.238;9.126;2023-07-09T12:21:48;16.77;;;4.55;;
63046;SDS011;62025;39.238;9.126;2023-07-09T12:24:23;14.95;;;4.65;;
63046;SDS011;62025;39.238;9.126;2023-07-09T12:26:57;15.00;;;4.07;;
63046;SDS011;62025;39.238;9.126;2023-07-09T12:29:30;14.82;;;4.22;;
63046;SDS011;62025;39.238;9.126;2023-07-09T12:32:03;13.90;;;4.43;;
63046;SDS011;62025;39.238;9.126;2023-07-09T12:34:41;16.38;;;4.82;;
63046;SDS011;62025;39.238;9.126;2023-07-09T12:37:14;13.50;;;4.50;;
63046;SDS011;62025;39.238;9.126;2023-07-09T12:39:41;12.50;;;4.40;;
63046;SDS011;62025;39.238;9.126;2023-07-09T12:42:17;14.25;;;4.40;;
63046;SDS011;62025;39.238;9.126;2023-07-09T12:44:48;14.48;;;4.50;;
63046;SDS011;62025;39.238;9.126;2023-07-09T12:47:15;14.48;;;4.80;;
63046;SDS011;62025;39.238;9.126;2023-07-09T12:49:44;15.80;;;4.05;;
63046;SDS011;62025;39.238;9.126;2023-07-09T12:52:19;13.93;;;4.43;;
63046;SDS011;62025;39.238;9.126;2023-07-09T12:54:57;12.20;;;4.90;;
63046;SDS011;62025;39.238;9.126;2023-07-09T12:57:25;13.23;;;4.72;;
63046;SDS011;62025;39.238;9.126;2023-07-09T12:59:54;15.70;;;5.32;;
63046;SDS011;62025;39.238;9.126;2023-07-09T13:04:49;16.42;;;4.82;;
63046;SDS011;62025;39.238;9.126;2023-07-09T13:10:05;14.35;;;4.32;;
63046;SDS011;62025;39.238;9.126;2023-07-09T13:12:50;15.90;;;4.50;;
63046;SDS011;62025;39.238;9.126;2023-07-09T13:15:29;12.15;;;4.43;;
63046;SDS011;62025;39.238;9.126;2023-07-09T13:18:09;13.93;;;4.82;;
63046;SDS011;62025;39.238;9.126;2023-07-09T13:20:39;12.25;;;4.40;;
63046;SDS011;62025;39.238;9.126;2023-07-09T13:23:12;12.10;;;4.30;;
63046;SDS011;62025;39.238;9.126;2023-07-09T13:25:44;13.50;;;4.07;;
63046;SDS011;62025;39.238;9.126;2023-07-09T13:30:57;17.10;;;5.95;;
63046;SDS011;62025;39.238;9.126;2023-07-09T13:33:50;11.63;;;4.45;;
63046;SDS011;62025;39.238;9.126;2023-07-09T13:36:20;14.18;;;4.82;;
63046;SDS011;62025;39.238;9.126;2023-07-09T13:38:46;16.35;;;4.80;;
63046;SDS011;62025;39.238;9.126;2023-07-09T13:41:13;16.52;;;4.43;;
63046;SDS011;62025;39.238;9.126;2023-07-09T13:43:44;14.63;;;4.30;;
63046;SDS011;62025;39.238;9.126;2023-07-09T13:46:12;16.80;;;4.75;;
63046;SDS011;62025;39.238;9.126;2023-07-09T13:48:40;13.43;;;3.80;;
63046;SDS011;62025;39.238;9.126;2023-07-09T13:51:21;14.20;;;4.43;;
63046;SDS011;62025;39.238;9.126;2023-07-09T13:53:49;15.90;;;4.35;;
63046;SDS011;62025;39.238;9.126;2023-07-09T13:56:18;17.45;;;5.15;;
63046;SDS011;62025;39.238;9.126;2023-07-09T13:58:45;14.48;;;4.60;;
63046;SDS011;62025;39.238;9.126;2023-07-09T14:01:15;11.02;;;4.13;;
63046;SDS011;62025;39.238;9.126;2023-07-09T14:03:46;11.43;;;4.13;;
63046;SDS011;62025;39.238;9.126;2023-07-09T14:06:13;11.02;;;4.25;;
63046;SDS011;62025;39.238;9.126;2023-07-09T14:08:41;8.98;;;4.13;;
63046;SDS011;62025;39.238;9.126;2023-07-09T14:11:11;9.45;;;4.82;;
63046;SDS011;62025;39.238;9.126;2023-07-09T14:13:40;12.00;;;4.75;;
63046;SDS011;62025;39.238;9.126;2023-07-09T14:16:09;14.50;;;4.63;;
63046;SDS011;62025;39.238;9.126;2023-07-09T14:18:40;14.70;;;4.45;;
63046;SDS011;62025;39.238;9.126;2023-07-09T14:21:22;8.98;;;4.20;;
63046;SDS011;62025;39.238;9.126;2023-07-09T14:23:51;12.60;;;4.53;;
63046;SDS011;62025;39.238;9.126;2023-07-09T14:26:18;13.13;;;4.53;;
63046;SDS011;62025;39.238;9.126;2023-07-09T14:28:45;13.23;;;4.70;;
63046;SDS011;62025;39.238;9.126;2023-07-09T14:31:18;10.68;;;4.63;;
63046;SDS011;62025;39.238;9.126;2023-07-09T14:33:49;10.77;;;4.55;;
63046;SDS011;62025;39.238;9.126;2023-07-09T14:36:15;14.60;;;4.60;;
63046;SDS011;62025;39.238;9.126;2023-07-09T14:38:42;16.90;;;5.30;;
63046;SDS011;62025;39.238;9.126;2023-07-09T14:41:15;11.32;;;4.90;;
63046;SDS011;62025;39.238;9.126;2023-07-09T14:43:47;13.57;;;4.10;;
63046;SDS011;62025;39.238;9.126;2023-07-09T14:46:14;18.88;;;4.40;;
63046;SDS011;62025;39.238;9.126;2023-07-09T14:48:40;12.68;;;5.07;;
63046;SDS011;62025;39.238;9.126;2023-07-09T14:51:11;11.45;;;4.53;;
63046;SDS011;62025;39.238;9.126;2023-07-09T14:53:40;17.80;;;5.13;;
63046;SDS011;62025;39.238;9.126;2023-07-09T14:56:07;10.82;;;4.65;;
63046;SDS011;62025;39.238;9.126;2023-07-09T14:58:35;12.95;;;4.22;;
63046;SDS011;62025;39.238;9.126;2023-07-09T15:01:03;18.35;;;5.38;;
63046;SDS011;62025;39.238;9.126;2023-07-09T15:03:29;11.60;;;4.65;;
63046;SDS011;62025;39.238;9.126;2023-07-09T15:05:55;10.70;;;4.80;;
63046;SDS011;62025;39.238;9.126;2023-07-09T15:08:22;14.15;;;4.90;;
63046;SDS011;62025;39.238;9.126;2023-07-09T15:10:51;13.77;;;4.45;;
63046;SDS011;62025;39.238;9.126;2023-07-09T15:13:28;11.63;;;4.88;;
63046;SDS011;62025;39.238;9.126;2023-07-09T15:15:58;14.23;;;4.57;;
63046;SDS011;62025;39.238;9.126;2023-07-09T15:18:25;15.23;;;4.43;;
63046;SDS011;62025;39.238;9.126;2023-07-09T15:20:52;15.30;;;4.70;;
63046;SDS011;62025;39.238;9.126;2023-07-09T15:23:23;10.60;;;4.57;;
63046;SDS011;62025;39.238;9.126;2023-07-09T15:25:50;15.18;;;4.68;;
63046;SDS011;62025;39.238;9.126;2023-07-09T15:28:17;13.80;;;5.05;;
63046;SDS011;62025;39.238;9.126;2023-07-09T15:30:43;12.60;;;5.10;;
63046;SDS011;62025;39.238;9.126;2023-07-09T15:33:17;13.23;;;4.77;;
63046;SDS011;62025;39.238;9.126;2023-07-09T15:35:45;11.32;;;4.78;;
63046;SDS011;62025;39.238;9.126;2023-07-09T15:38:21;19.35;;;5.15;;
63046;SDS011;62025;39.238;9.126;2023-07-09T15:40:53;13.98;;;5.10;;
63046;SDS011;62025;39.238;9.126;2023-07-09T15:43:20;16.38;;;5.07;;
63046;SDS011;62025;39.238;9.126;2023-07-09T15:45:47;14.52;;;4.95;;
63046;SDS011;62025;39.238;9.126;2023-07-09T15:48:23;12.10;;;4.82;;
63046;SDS011;62025;39.238;9.126;2023-07-09T15:50:59;16.13;;;4.90;;
63046;SDS011;62025;39.238;9.126;2023-07-09T15:53:30;13.27;;;4.80;;
63046;SDS011;62025;39.238;9.126;2023-07-09T15:55:58;15.70;;;4.83;;
63046;SDS011;62025;39.238;9.126;2023-07-09T15:58:37;12.93;;;4.70;;
63046;SDS011;62025;39.238;9.126;2023-07-09T16:01:09;17.17;;;4.97;;